createdAt,value
2023-01-19T00:00:00.345Z,92.8
2023-01-19T00:10:00.331Z,92.0
2023-01-19T00:20:00.320Z,91.7
2023-01-19T00:30:00.441Z,91.4
2023-01-19T00:40:00.600Z,91.0
2023-01-19T00:50:00.637Z,90.7
2023-01-19T01:00:00.492Z,90.8
2023-01-19T01:10:00.608Z,90.0
2023-01-19T01:20:01.125Z,89.9
2023-01-19T01:30:00.625Z,90.0
2023-01-19T01:40:00.391Z,90.2
2023-01-19T01:50:00.505Z,89.3
2023-01-19T02:00:00.429Z,89.6
2023-01-19T02:10:00.396Z,90.6
2023-01-19T02:20:00.319Z,91.8
2023-01-19T02:30:00.323Z,93.3
2023-01-19T02:40:00.331Z,93.2
2023-01-19T02:50:00.345Z,93.5
2023-01-19T03:00:00.313Z,93.5
2023-01-19T03:10:00.346Z,91.5
2023-01-19T03:20:00.324Z,89.8
2023-01-19T03:30:00.338Z,88.4
2023-01-19T03:40:00.353Z,88.8
2023-01-19T03:50:00.344Z,89.2
2023-01-19T04:00:00.344Z,88.9
2023-01-19T04:10:00.346Z,89.6
2023-01-19T04:20:00.336Z,90.0
2023-01-19T04:30:00.342Z,90.6
2023-01-19T04:40:00.916Z,90.7
2023-01-19T04:50:00.372Z,90.7
2023-01-19T05:00:00.326Z,90.4
2023-01-19T05:10:00.825Z,90.4
2023-01-19T05:20:00.807Z,89.9
2023-01-19T05:30:01.132Z,90.4
2023-01-19T05:40:00.753Z,89.6
2023-01-19T05:50:00.523Z,90.5
2023-01-19T06:00:00.416Z,91.3
2023-01-19T06:10:00.491Z,91.7
2023-01-19T06:20:00.371Z,92.1
2023-01-19T06:30:00.317Z,92.2
2023-01-19T06:40:00.333Z,89.9
2023-01-19T06:50:00.314Z,88.9
2023-01-19T07:00:00.330Z,89.1
2023-01-19T07:10:00.351Z,89.2
2023-01-19T07:20:00.325Z,88.7
2023-01-19T07:30:00.333Z,89.0
2023-01-19T07:40:00.342Z,90.9
2023-01-19T07:50:00.351Z,91.9
2023-01-19T08:00:00.337Z,92.1
2023-01-19T08:10:00.327Z,92.1
2023-01-19T08:20:00.333Z,92.4
2023-01-19T08:30:00.330Z,91.9
2023-01-19T08:40:00.316Z,92.4
2023-01-19T08:50:00.309Z,92.6
2023-01-19T09:00:00.385Z,92.2
2023-01-19T09:10:00.297Z,91.6
2023-01-19T09:20:00.329Z,92.0
2023-01-19T09:30:00.478Z,91.7
2023-01-19T09:40:00.495Z,91.9
2023-01-19T09:50:00.456Z,92.1
2023-01-19T10:00:00.488Z,92.6
2023-01-19T10:10:00.552Z,92.5
2023-01-19T10:20:00.569Z,92.4
2023-01-19T10:30:00.624Z,92.2
2023-01-19T10:40:00.560Z,92.8
2023-01-19T10:50:00.530Z,92.4
2023-01-19T11:00:00.479Z,91.4
2023-01-19T11:10:00.342Z,92.1
2023-01-19T11:20:00.348Z,91.9
2023-01-19T11:30:00.347Z,92.3
2023-01-19T11:40:00.408Z,92.8
2023-01-19T11:50:00.324Z,92.2
2023-01-19T12:00:00.340Z,92.9
2023-01-19T12:10:00.461Z,92.7
2023-01-19T12:20:00.357Z,93.3
2023-01-19T12:30:00.336Z,94.0
2023-01-19T12:40:00.326Z,94.5
2023-01-19T12:50:00.323Z,94.3
2023-01-19T13:00:00.331Z,94.4
2023-01-19T13:10:00.326Z,95.1
2023-01-19T13:20:00.321Z,94.8
2023-01-19T13:30:00.790Z,94.4
2023-01-19T13:40:00.869Z,94.7
2023-01-19T13:50:00.838Z,94.1
2023-01-19T14:00:00.631Z,93.9
2023-01-19T14:10:00.669Z,93.9
2023-01-19T14:20:00.668Z,93.6
2023-01-19T14:30:00.497Z,93.8
2023-01-19T14:40:00.609Z,94.1
2023-01-19T14:50:00.484Z,94.5
2023-01-19T15:00:00.604Z,94.5
2023-01-19T15:10:00.345Z,94.5
2023-01-19T15:40:00.324Z,94.0
2023-01-19T15:50:00.361Z,95.1
2023-01-19T16:00:00.318Z,94.7
2023-01-19T16:10:00.374Z,94.2
2023-01-19T16:40:00.395Z,94.4
2023-01-19T16:50:00.350Z,94.2
2023-01-19T17:00:00.324Z,94.8
2023-01-19T17:10:00.321Z,95.1
2023-01-19T17:20:00.372Z,95.6
2023-01-19T17:30:00.507Z,95.5
2023-01-19T17:40:00.438Z,95.7
2023-01-19T17:50:00.421Z,95.6
2023-01-19T18:00:00.336Z,95.3
2023-01-19T18:10:01.245Z,95.3
2023-01-19T18:20:00.494Z,95.7
2023-01-19T18:30:00.540Z,95.5
2023-01-19T18:40:00.530Z,95.4
2023-01-19T18:50:00.568Z,95.2
2023-01-19T19:00:00.543Z,95.0
2023-01-19T19:10:00.517Z,95.6
2023-01-19T19:20:00.628Z,95.0
2023-01-19T19:30:00.860Z,95.2
2023-01-19T19:40:00.661Z,95.4
2023-01-19T19:50:00.646Z,95.0
2023-01-19T20:00:00.655Z,95.1
2023-01-19T20:10:00.648Z,94.5
2023-01-19T20:20:01.400Z,95.3
2023-01-19T20:30:00.603Z,95.2
2023-01-19T20:40:00.580Z,94.8
2023-01-19T20:50:00.545Z,95.1
2023-01-19T21:00:00.557Z,94.7
2023-01-19T21:10:00.520Z,94.3
2023-01-19T21:20:00.549Z,93.5
2023-01-19T21:30:00.535Z,93.4
2023-01-19T21:40:00.524Z,93.4
2023-01-19T21:50:00.530Z,92.9
2023-01-19T22:00:00.514Z,92.7
2023-01-19T22:10:00.526Z,93.0
2023-01-19T22:20:00.527Z,91.7
2023-01-19T22:30:00.531Z,92.7
2023-01-19T22:40:00.565Z,92.5
2023-01-19T22:50:00.518Z,92.9
2023-01-19T23:00:00.564Z,92.6
2023-01-19T23:10:00.513Z,92.6
2023-01-19T23:20:00.594Z,93.0
2023-01-19T23:30:00.504Z,93.7
2023-01-19T23:40:00.526Z,94.1
2023-01-19T23:50:00.530Z,93.4
